createdAt,value
2023-05-02T00:02:18.069Z,10.70
2023-05-02T00:04:45.345Z,10.38
2023-05-02T00:07:12.444Z,10.85
2023-05-02T00:09:39.408Z,10.57
2023-05-02T00:12:06.483Z,11.25
2023-05-02T00:14:33.569Z,9.75
2023-05-02T00:17:00.486Z,10.57
2023-05-02T00:19:27.463Z,9.65
2023-05-02T00:21:54.546Z,9.48
2023-05-02T00:24:21.512Z,10.02
2023-05-02T00:26:48.555Z,10.35
2023-05-02T00:29:15.536Z,9.80
2023-05-02T00:31:42.755Z,10.18
2023-05-02T00:34:09.940Z,9.55
2023-05-02T00:36:36.933Z,9.85
2023-05-02T00:39:04.612Z,9.43
2023-05-02T00:41:31.628Z,10.27
2023-05-02T00:43:58.865Z,9.52
2023-05-02T00:46:26.461Z,9.48
2023-05-02T00:48:53.625Z,13.13
2023-05-02T00:51:20.599Z,15.20
2023-05-02T00:53:47.562Z,14.18
2023-05-02T00:56:14.623Z,11.27
2023-05-02T00:58:42.236Z,10.07
2023-05-02T01:01:20.655Z,10.85
2023-05-02T01:04:20.066Z,10.00
2023-05-02T01:07:18.218Z,13.15
2023-05-02T01:10:30.829Z,10.43
2023-05-02T01:13:04.422Z,11.20
2023-05-02T01:15:33.614Z,9.80
2023-05-02T01:18:02.691Z,18.08
2023-05-02T01:20:33.389Z,11.93
2023-05-02T01:23:06.063Z,10.57
2023-05-02T01:26:05.005Z,9.93
2023-05-02T01:28:55.169Z,9.13
2023-05-02T01:31:25.485Z,9.57
2023-05-02T01:33:54.341Z,9.45
2023-05-02T01:36:23.659Z,9.82
2023-05-02T01:38:51.820Z,9.77
2023-05-02T01:41:21.158Z,9.60
2023-05-02T01:43:48.943Z,9.43
2023-05-02T01:46:16.382Z,9.73
2023-05-02T01:48:47.064Z,8.93
2023-05-02T01:51:18.413Z,8.30
2023-05-02T01:53:49.763Z,8.98
2023-05-02T01:56:19.954Z,9.10
2023-05-02T01:58:48.961Z,8.90
2023-05-02T02:01:18.078Z,8.75
2023-05-02T02:03:47.063Z,8.93
2023-05-02T02:06:16.319Z,7.85
2023-05-02T02:08:43.650Z,8.75
2023-05-02T02:11:17.430Z,9.10
2023-05-02T02:13:53.395Z,8.75
2023-05-02T02:16:31.048Z,7.78
2023-05-02T02:19:04.721Z,8.60
2023-05-02T02:21:35.012Z,8.50
2023-05-02T02:24:04.612Z,8.93
2023-05-02T02:26:31.661Z,8.60
2023-05-02T02:29:00.270Z,8.25
2023-05-02T02:31:39.344Z,8.45
2023-05-02T02:34:06.693Z,8.60
2023-05-02T02:36:46.857Z,7.65
2023-05-02T02:39:43.882Z,7.70
2023-05-02T02:42:16.754Z,8.07
2023-05-02T02:45:07.291Z,8.35
2023-05-02T02:47:41.557Z,7.78
2023-05-02T02:50:25.422Z,8.07
2023-05-02T02:52:58.078Z,7.88
2023-05-02T02:55:46.221Z,8.45
2023-05-02T02:58:30.981Z,8.07
2023-05-02T03:01:03.347Z,8.93
2023-05-02T03:03:32.872Z,8.05
2023-05-02T03:06:00.984Z,8.80
2023-05-02T03:08:27.969Z,8.45
2023-05-02T03:10:54.904Z,7.70
2023-05-02T03:13:21.885Z,8.02
2023-05-02T03:15:52.075Z,8.65
2023-05-02T03:18:19.512Z,8.45
2023-05-02T03:20:46.521Z,8.27
2023-05-02T03:23:13.576Z,8.05
2023-05-02T03:25:40.404Z,8.45
2023-05-02T03:28:07.344Z,8.43
2023-05-02T03:30:34.378Z,8.43
2023-05-02T03:33:01.917Z,8.38
2023-05-02T03:35:28.942Z,9.07
2023-05-02T03:37:55.993Z,8.45
2023-05-02T03:40:22.900Z,9.30
2023-05-02T03:42:49.937Z,9.30
2023-05-02T03:45:16.939Z,8.63
2023-05-02T03:47:44.024Z,8.98
2023-05-02T03:50:11.308Z,8.80
2023-05-02T03:52:38.232Z,8.63
2023-05-02T03:55:08.159Z,8.65
2023-05-02T03:57:35.135Z,9.05
2023-05-02T04:00:02.361Z,8.40
2023-05-02T04:02:30.752Z,9.70
2023-05-02T04:04:57.740Z,8.65
2023-05-02T04:07:26.192Z,9.13
2023-05-02T04:09:53.260Z,9.88
2023-05-02T04:12:20.805Z,10.43
2023-05-02T04:14:47.814Z,9.65
2023-05-02T04:17:17.990Z,10.93
2023-05-02T04:19:45.127Z,10.15
2023-05-02T04:22:12.737Z,9.75
2023-05-02T04:24:39.805Z,9.45
2023-05-02T04:27:06.697Z,8.63
2023-05-02T04:29:33.813Z,9.35
2023-05-02T04:32:00.775Z,7.93
2023-05-02T04:34:28.775Z,9.90
2023-05-02T04:36:55.823Z,9.90
2023-05-02T04:39:22.676Z,9.77
2023-05-02T04:41:49.743Z,9.23
2023-05-02T04:44:16.997Z,9.77
2023-05-02T04:46:44.887Z,9.90
2023-05-02T04:49:12.482Z,8.85
2023-05-02T04:51:39.438Z,9.07
2023-05-02T04:54:06.421Z,8.57
2023-05-02T04:56:33.429Z,8.65
2023-05-02T04:59:00.431Z,8.35
2023-05-02T05:01:28.397Z,9.40
2023-05-02T05:03:56.067Z,8.85
2023-05-02T05:06:23.126Z,8.88
2023-05-02T05:08:50.161Z,8.00
2023-05-02T05:11:17.190Z,9.52
2023-05-02T05:13:44.183Z,7.13
2023-05-02T05:16:11.045Z,9.13
2023-05-02T05:18:41.056Z,9.15
2023-05-02T05:21:08.933Z,7.82
2023-05-02T05:23:37.546Z,8.57
2023-05-02T05:26:15.757Z,8.52
2023-05-02T05:28:44.025Z,9.00
2023-05-02T05:31:14.558Z,8.88
2023-05-02T05:33:44.078Z,10.00
2023-05-02T05:36:13.247Z,8.63
2023-05-02T05:38:40.414Z,8.43
2023-05-02T05:41:08.318Z,7.43
2023-05-02T05:43:37.348Z,7.80
2023-05-02T05:46:05.144Z,8.32
2023-05-02T05:48:32.152Z,8.52
2023-05-02T05:50:59.096Z,8.50
2023-05-02T05:53:25.973Z,7.65
2023-05-02T05:55:52.917Z,7.70
2023-05-02T05:58:19.946Z,7.80
2023-05-02T06:00:46.985Z,7.53
2023-05-02T06:03:14.164Z,8.10
2023-05-02T06:05:41.110Z,7.80
2023-05-02T06:08:08.136Z,7.65
2023-05-02T06:10:35.363Z,8.00
2023-05-02T06:13:02.376Z,8.18
2023-05-02T06:15:29.436Z,7.75
2023-05-02T06:17:56.368Z,7.43
2023-05-02T06:20:23.398Z,8.05
2023-05-02T06:22:50.521Z,7.97
2023-05-02T06:25:17.590Z,7.05
2023-05-02T06:27:44.554Z,8.05
2023-05-02T06:30:11.842Z,8.13
2023-05-02T06:32:38.988Z,7.72
2023-05-02T06:35:06.552Z,7.90
2023-05-02T06:37:35.335Z,8.40
2023-05-02T06:40:03.382Z,8.20
2023-05-02T06:42:31.009Z,8.43
2023-05-02T06:44:57.890Z,7.90
2023-05-02T06:47:24.972Z,8.05
2023-05-02T06:49:53.222Z,7.68
2023-05-02T06:52:20.212Z,8.40
2023-05-02T06:54:47.093Z,7.65
2023-05-02T06:57:14.230Z,7.38
2023-05-02T06:59:41.248Z,7.00
2023-05-02T07:02:08.468Z,6.82
2023-05-02T07:04:35.418Z,6.93
2023-05-02T07:07:02.461Z,6.43
2023-05-02T07:09:29.431Z,6.55
2023-05-02T07:11:56.471Z,6.65
2023-05-02T07:14:23.368Z,6.38
2023-05-02T07:16:50.404Z,6.63
2023-05-02T07:19:17.668Z,6.75
2023-05-02T07:21:44.768Z,6.57
2023-05-02T07:24:11.732Z,6.78
2023-05-02T07:26:38.732Z,6.68
2023-05-02T07:29:07.170Z,6.85
2023-05-02T07:31:34.095Z,6.30
2023-05-02T07:34:01.257Z,5.78
2023-05-02T07:36:28.305Z,5.88
2023-05-02T07:38:55.300Z,6.13
2023-05-02T07:41:22.341Z,6.13
2023-05-02T07:43:49.739Z,5.75
2023-05-02T07:46:16.868Z,6.03
2023-05-02T07:48:43.826Z,6.20
2023-05-02T07:51:11.422Z,6.22
2023-05-02T07:53:38.561Z,6.30
2023-05-02T07:56:07.178Z,6.07
2023-05-02T07:58:36.418Z,5.50
2023-05-02T08:01:04.183Z,6.18
2023-05-02T08:03:31.652Z,5.80
2023-05-02T08:05:58.911Z,5.47
2023-05-02T08:08:26.076Z,4.90
2023-05-02T08:10:53.111Z,5.70
2023-05-02T08:13:20.194Z,6.15
2023-05-02T08:15:47.112Z,5.97
2023-05-02T08:18:14.112Z,6.15
2023-05-02T08:20:41.141Z,6.05
2023-05-02T08:23:08.137Z,5.93
2023-05-02T08:25:35.196Z,4.88
2023-05-02T08:28:02.224Z,5.22
2023-05-02T08:30:29.252Z,5.43
2023-05-02T08:32:56.312Z,5.28
2023-05-02T08:35:23.191Z,6.35
2023-05-02T08:37:50.248Z,5.20
2023-05-02T08:40:24.693Z,6.18
2023-05-02T08:43:02.039Z,5.93
2023-05-02T08:45:37.808Z,4.70
2023-05-02T08:48:11.194Z,5.20
2023-05-02T08:50:40.140Z,5.38
2023-05-02T08:53:08.631Z,5.22
2023-05-02T08:55:40.261Z,5.45
2023-05-02T08:58:08.797Z,5.18
2023-05-02T09:00:41.225Z,4.78
2023-05-02T09:03:36.769Z,5.00
2023-05-02T09:06:06.456Z,4.32
2023-05-02T09:08:34.891Z,4.57
2023-05-02T09:11:04.132Z,4.53
2023-05-02T09:13:45.300Z,4.85
2023-05-02T09:16:20.056Z,4.72
2023-05-02T09:19:06.213Z,4.65
2023-05-02T09:21:40.211Z,3.92
2023-05-02T09:24:18.883Z,3.95
2023-05-02T09:27:06.193Z,4.57
2023-05-02T09:29:39.107Z,4.97
2023-05-02T09:32:07.246Z,4.30
2023-05-02T09:34:34.614Z,4.95
2023-05-02T09:37:03.009Z,4.60
2023-05-02T09:39:30.067Z,4.72
2023-05-02T09:41:58.073Z,4.13
2023-05-02T09:44:27.027Z,4.70
2023-05-02T09:47:02.477Z,4.30
2023-05-02T09:49:46.775Z,4.80
2023-05-02T09:52:16.131Z,5.00
2023-05-02T09:54:43.367Z,4.60
2023-05-02T09:57:11.427Z,5.20
2023-05-02T09:59:41.612Z,4.85
2023-05-02T10:02:11.892Z,5.32
2023-05-02T10:04:39.880Z,5.00
2023-05-02T10:07:10.842Z,4.60
2023-05-02T10:09:43.394Z,4.95
2023-05-02T10:12:14.863Z,5.07
2023-05-02T10:14:47.346Z,4.65
2023-05-02T10:17:26.788Z,5.15
2023-05-02T10:19:56.755Z,4.80
2023-05-02T10:22:23.977Z,5.00
2023-05-02T10:24:51.025Z,4.43
2023-05-02T10:27:18.545Z,4.60
2023-05-02T10:29:47.225Z,4.38
2023-05-02T10:32:15.404Z,4.40
2023-05-02T10:34:42.851Z,4.53
2023-05-02T10:37:09.951Z,4.75
2023-05-02T10:39:38.090Z,4.22
2023-05-02T10:42:07.252Z,4.38
2023-05-02T10:44:34.416Z,3.95
2023-05-02T10:47:01.704Z,4.57
2023-05-02T10:49:30.092Z,3.45
2023-05-02T10:51:57.048Z,4.40
2023-05-02T10:54:25.573Z,4.03
2023-05-02T10:57:08.438Z,4.03
2023-05-02T10:59:38.095Z,3.60
2023-05-02T11:02:28.228Z,4.32
2023-05-02T11:05:04.310Z,4.47
2023-05-02T11:07:33.899Z,3.67
2023-05-02T11:10:27.821Z,4.18
2023-05-02T11:13:01.567Z,4.22
2023-05-02T11:15:29.026Z,3.85
2023-05-02T11:18:02.436Z,3.60
2023-05-02T11:20:32.771Z,4.50
2023-05-02T11:23:21.864Z,4.63
2023-05-02T11:25:54.502Z,4.43
2023-05-02T11:28:42.865Z,4.25
2023-05-02T11:31:31.411Z,4.30
2023-05-02T11:34:03.096Z,4.43
2023-05-02T11:36:34.228Z,4.15
2023-05-02T11:39:02.951Z,4.00
2023-05-02T11:41:42.888Z,4.47
2023-05-02T11:44:10.571Z,3.95
2023-05-02T11:46:38.809Z,4.35
2023-05-02T11:49:09.332Z,4.65
2023-05-02T11:51:37.760Z,4.50
2023-05-02T11:54:07.979Z,4.38
2023-05-02T11:56:35.035Z,3.90
2023-05-02T11:59:03.723Z,3.92
2023-05-02T12:01:31.022Z,4.65
2023-05-02T12:04:08.263Z,4.15
2023-05-02T12:06:35.936Z,4.43
2023-05-02T12:09:20.568Z,4.00
2023-05-02T12:11:52.809Z,4.45
2023-05-02T12:14:30.378Z,4.15
2023-05-02T12:16:59.501Z,4.18
2023-05-02T12:19:27.485Z,4.80
2023-05-02T12:21:54.648Z,5.05
2023-05-02T12:24:21.865Z,3.75
2023-05-02T12:26:49.742Z,5.28
2023-05-02T12:29:18.153Z,4.07
2023-05-02T12:31:52.365Z,4.10
2023-05-02T12:34:33.707Z,4.55
2023-05-02T12:39:43.308Z,4.40
2023-05-02T12:42:14.855Z,4.32
2023-05-02T12:44:46.859Z,4.55
2023-05-02T12:47:16.166Z,4.60
2023-05-02T12:49:50.874Z,4.57
2023-05-02T12:52:19.825Z,4.72
2023-05-02T12:54:47.492Z,4.70
2023-05-02T12:57:26.878Z,4.72
2023-05-02T12:59:54.714Z,4.38
2023-05-02T13:02:22.970Z,5.00
2023-05-02T13:04:50.187Z,4.90
2023-05-02T13:07:17.268Z,4.72
2023-05-02T13:09:44.232Z,5.25
2023-05-02T13:12:11.295Z,5.35
2023-05-02T13:14:38.581Z,6.22
2023-05-02T13:17:05.639Z,5.47
2023-05-02T13:19:32.618Z,5.25
2023-05-02T13:22:00.138Z,5.03
2023-05-02T13:24:27.170Z,5.70
2023-05-02T13:26:54.110Z,5.30
2023-05-02T13:29:21.073Z,5.60
2023-05-02T13:31:48.021Z,5.38
2023-05-02T13:34:15.022Z,5.65
2023-05-02T13:36:46.600Z,5.65
2023-05-02T13:39:14.265Z,7.25
2023-05-02T13:41:41.675Z,5.68
2023-05-02T13:44:09.749Z,6.95
2023-05-02T13:46:38.062Z,6.40
2023-05-02T13:49:05.733Z,6.93
2023-05-02T13:51:33.244Z,6.57
2023-05-02T13:54:01.419Z,6.95
2023-05-02T13:56:28.476Z,7.25
2023-05-02T13:58:55.507Z,7.68
2023-05-02T14:01:22.921Z,6.82
2023-05-02T14:03:50.360Z,7.10
2023-05-02T14:06:17.472Z,6.90
2023-05-02T14:08:45.106Z,7.10
2023-05-02T14:11:12.189Z,8.02
2023-05-02T14:13:39.268Z,7.75
2023-05-02T14:16:06.770Z,8.35
2023-05-02T14:18:33.669Z,7.25
2023-05-02T14:21:00.771Z,8.32
2023-05-02T14:23:31.162Z,8.27
2023-05-02T14:25:58.510Z,8.73
2023-05-02T14:28:27.341Z,9.30
2023-05-02T14:30:54.368Z,9.80
2023-05-02T14:33:21.408Z,10.48
2023-05-02T14:35:49.497Z,10.52
2023-05-02T14:38:16.736Z,11.32
2023-05-02T14:40:43.798Z,10.98
2023-05-02T14:43:14.979Z,12.07
2023-05-02T14:45:41.903Z,13.68
2023-05-02T14:48:09.211Z,36.10
2023-05-02T14:50:37.889Z,18.40
2023-05-02T14:53:04.780Z,11.82
2023-05-02T14:55:36.901Z,12.40
2023-05-02T14:58:03.968Z,13.82
2023-05-02T15:00:31.007Z,13.20
2023-05-02T15:02:58.134Z,12.30
2023-05-02T15:05:25.426Z,11.30
2023-05-02T15:07:52.462Z,10.85
2023-05-02T15:10:19.420Z,10.35
2023-05-02T15:12:50.888Z,11.25
2023-05-02T15:15:19.138Z,11.52
2023-05-02T15:17:46.074Z,10.43
2023-05-02T15:20:13.422Z,10.45
2023-05-02T15:22:40.615Z,11.90
2023-05-02T15:25:08.965Z,12.02
2023-05-02T15:27:36.143Z,12.48
2023-05-02T15:30:03.852Z,13.48
2023-05-02T15:32:31.134Z,13.45
2023-05-02T15:34:58.078Z,11.00
2023-05-02T15:37:25.121Z,10.13
2023-05-02T15:39:52.134Z,11.45
2023-05-02T15:42:19.228Z,11.23
2023-05-02T15:44:46.229Z,11.95
2023-05-02T15:47:13.159Z,11.65
2023-05-02T15:49:40.968Z,13.07
2023-05-02T15:52:07.965Z,13.73
2023-05-02T15:54:34.912Z,12.45
2023-05-02T15:57:02.994Z,10.82
2023-05-02T15:59:30.068Z,11.60
2023-05-02T16:01:57.112Z,9.73
2023-05-02T16:04:25.514Z,10.50
2023-05-02T16:06:52.741Z,10.18
2023-05-02T16:09:21.219Z,10.45
2023-05-02T16:11:49.602Z,12.15
2023-05-02T16:14:16.531Z,10.27
2023-05-02T16:16:43.446Z,10.95
2023-05-02T16:19:13.698Z,10.85
2023-05-02T16:21:42.545Z,10.50
2023-05-02T16:24:10.389Z,10.75
2023-05-02T16:26:37.473Z,11.18
2023-05-02T16:29:04.491Z,10.07
2023-05-02T16:31:31.573Z,10.93
2023-05-02T16:33:59.039Z,11.23
2023-05-02T16:36:26.691Z,11.63
2023-05-02T16:38:53.872Z,10.73
2023-05-02T16:41:21.642Z,10.35
2023-05-02T16:43:49.972Z,10.40
2023-05-02T16:46:17.677Z,10.73
2023-05-02T16:48:44.685Z,10.73
2023-05-02T16:51:11.721Z,10.88
2023-05-02T16:53:38.852Z,10.85
2023-05-02T16:56:06.252Z,10.82
2023-05-02T16:58:33.264Z,11.60
2023-05-02T17:01:01.405Z,12.05
2023-05-02T17:03:29.708Z,10.95
2023-05-02T17:06:03.662Z,11.10
2023-05-02T17:08:30.737Z,10.65
2023-05-02T17:10:57.736Z,11.32
2023-05-02T17:13:24.926Z,10.70
2023-05-02T17:15:53.133Z,11.77
2023-05-02T17:18:20.055Z,11.27
2023-05-02T17:20:47.252Z,10.63
2023-05-02T17:23:14.807Z,10.57
2023-05-02T17:25:42.422Z,11.20
2023-05-02T17:28:09.656Z,11.35
2023-05-02T17:30:36.753Z,12.10
2023-05-02T17:33:04.038Z,11.73
2023-05-02T17:35:31.965Z,12.57
2023-05-02T17:37:59.025Z,12.82
2023-05-02T17:40:26.080Z,13.07
2023-05-02T17:42:53.060Z,14.18
2023-05-02T17:45:20.097Z,13.27
2023-05-02T17:47:47.245Z,14.50
2023-05-02T17:50:14.420Z,14.43
2023-05-02T17:52:41.407Z,15.63
2023-05-02T17:55:08.987Z,17.67
2023-05-02T17:57:36.053Z,17.42
2023-05-02T18:00:04.882Z,19.58
2023-05-02T18:02:32.126Z,16.95
2023-05-02T18:05:00.767Z,18.35
2023-05-02T18:07:30.228Z,19.35
2023-05-02T18:09:57.522Z,16.13
2023-05-02T18:12:24.538Z,16.88
2023-05-02T18:14:52.774Z,15.40
2023-05-02T18:17:21.032Z,16.45
2023-05-02T18:19:50.280Z,15.00
2023-05-02T18:22:19.778Z,14.68
2023-05-02T18:24:47.313Z,14.15
2023-05-02T18:27:14.265Z,15.65
2023-05-02T18:29:41.564Z,26.52
2023-05-02T18:32:09.017Z,24.48
2023-05-02T18:34:38.473Z,32.88
2023-05-02T18:37:06.232Z,23.83
2023-05-02T18:39:34.444Z,17.23
2023-05-02T18:42:05.333Z,19.48
2023-05-02T18:44:32.503Z,17.13
2023-05-02T18:46:59.460Z,16.00
2023-05-02T18:49:29.020Z,16.38
2023-05-02T18:51:56.311Z,16.75
2023-05-02T18:54:23.635Z,16.95
2023-05-02T18:56:50.740Z,17.00
2023-05-02T18:59:19.149Z,16.88
2023-05-02T19:01:48.700Z,17.15
2023-05-02T19:04:15.968Z,16.55
2023-05-02T19:06:43.083Z,16.67
2023-05-02T19:09:10.133Z,16.33
2023-05-02T19:11:37.129Z,15.82
2023-05-02T19:14:04.110Z,16.98
2023-05-02T19:16:31.732Z,16.45
2023-05-02T19:18:58.796Z,17.05
2023-05-02T19:21:26.105Z,16.95
2023-05-02T19:23:53.337Z,17.27
2023-05-02T19:26:20.326Z,16.85
2023-05-02T19:28:47.448Z,18.02
2023-05-02T19:31:16.826Z,17.02
2023-05-02T19:33:50.370Z,18.17
2023-05-02T19:36:18.777Z,16.58
2023-05-02T19:38:49.585Z,17.67
2023-05-02T19:41:17.123Z,16.33
2023-05-02T19:43:44.555Z,15.55
2023-05-02T19:46:11.741Z,15.88
2023-05-02T19:48:38.863Z,17.80
2023-05-02T19:51:05.805Z,15.80
2023-05-02T19:53:34.486Z,15.70
2023-05-02T19:56:02.669Z,16.50
2023-05-02T19:58:30.171Z,16.60
2023-05-02T20:00:57.461Z,17.23
2023-05-02T20:03:25.671Z,17.50
2023-05-02T20:05:52.879Z,17.20
2023-05-02T20:08:21.464Z,16.50
2023-05-02T20:10:49.251Z,16.95
2023-05-02T20:13:16.299Z,17.08
2023-05-02T20:15:43.351Z,16.05
2023-05-02T20:18:10.328Z,16.77
2023-05-02T20:20:37.406Z,16.23
2023-05-02T20:23:04.271Z,16.38
2023-05-02T20:25:31.182Z,15.85
2023-05-02T20:27:58.068Z,17.10
2023-05-02T20:30:25.061Z,15.15
2023-05-02T20:32:52.307Z,16.92
2023-05-02T20:35:19.647Z,16.73
2023-05-02T20:37:47.119Z,15.57
2023-05-02T20:40:14.221Z,16.30
2023-05-02T20:42:42.625Z,16.77
2023-05-02T20:45:12.767Z,16.67
2023-05-02T20:47:40.009Z,16.92
2023-05-02T20:50:09.522Z,15.77
2023-05-02T20:52:39.307Z,17.40
2023-05-02T20:55:06.864Z,16.92
2023-05-02T20:57:33.822Z,17.23
2023-05-02T21:00:01.640Z,17.42
2023-05-02T21:02:28.849Z,18.13
2023-05-02T21:04:56.163Z,17.17
2023-05-02T21:07:23.074Z,17.42
2023-05-02T21:09:50.176Z,18.10
2023-05-02T21:12:17.285Z,17.05
2023-05-02T21:14:44.195Z,16.45
2023-05-02T21:17:11.120Z,18.08
2023-05-02T21:19:38.052Z,18.73
2023-05-02T21:22:04.921Z,18.90
2023-05-02T21:24:31.976Z,17.33
2023-05-02T21:26:59.454Z,17.42
2023-05-02T21:29:26.366Z,18.80
2023-05-02T21:31:54.761Z,17.65
2023-05-02T21:34:21.964Z,18.65
2023-05-02T21:36:48.841Z,17.63
2023-05-02T21:39:16.640Z,18.90
2023-05-02T21:41:43.654Z,18.45
2023-05-02T21:44:11.550Z,19.17
2023-05-02T21:46:38.426Z,18.95
2023-05-02T21:49:05.413Z,18.25
2023-05-02T21:51:34.238Z,17.48
2023-05-02T21:54:01.167Z,17.90
2023-05-02T21:56:28.008Z,15.73
2023-05-02T21:58:55.013Z,18.23
2023-05-02T22:01:22.181Z,17.50
2023-05-02T22:03:49.076Z,17.13
2023-05-02T22:06:17.461Z,18.23
2023-05-02T22:08:44.666Z,17.63
2023-05-02T22:11:11.559Z,16.63
2023-05-02T22:13:38.694Z,16.73
2023-05-02T22:16:07.000Z,16.23
2023-05-02T22:18:33.922Z,17.33
2023-05-02T22:21:02.362Z,15.70
2023-05-02T22:23:31.242Z,15.90
2023-05-02T22:25:58.823Z,16.92
2023-05-02T22:28:25.769Z,17.27
2023-05-02T22:30:52.783Z,16.60
2023-05-02T22:33:19.701Z,16.20
2023-05-02T22:35:46.574Z,17.13
2023-05-02T22:38:16.912Z,16.80
2023-05-02T22:40:43.810Z,17.10
2023-05-02T22:43:10.944Z,17.85
2023-05-02T22:45:38.692Z,17.50
2023-05-02T22:48:09.657Z,16.35
2023-05-02T22:50:36.623Z,15.32
2023-05-02T22:53:04.366Z,15.98
2023-05-02T22:55:31.378Z,15.98
2023-05-02T22:57:58.673Z,16.40
2023-05-02T23:00:25.574Z,16.02
2023-05-02T23:02:52.523Z,16.67
2023-05-02T23:05:19.800Z,15.40
2023-05-02T23:07:46.709Z,15.27
2023-05-02T23:10:13.624Z,15.98
2023-05-02T23:12:42.221Z,15.05
2023-05-02T23:15:10.069Z,14.23
2023-05-02T23:17:41.744Z,14.52
2023-05-02T23:20:13.106Z,15.00
2023-05-02T23:22:46.798Z,14.43
2023-05-02T23:25:15.184Z,13.43
2023-05-02T23:27:42.313Z,14.63
2023-05-02T23:30:09.908Z,14.10
2023-05-02T23:32:37.652Z,12.80
2023-05-02T23:35:06.075Z,14.07
2023-05-02T23:37:33.585Z,14.02
2023-05-02T23:40:01.383Z,13.52
2023-05-02T23:42:30.389Z,13.52
2023-05-02T23:44:58.176Z,14.35
2023-05-02T23:47:28.263Z,13.68
2023-05-02T23:49:55.361Z,13.70
2023-05-02T23:52:22.236Z,13.80
2023-05-02T23:54:49.398Z,13.20
2023-05-02T23:57:16.292Z,13.25
2023-05-02T23:59:43.141Z,13.98
